sensor_id;sensor_type;location;lat;lon;timestamp;P1;durP1;ratioP1;P2;durP2;ratioP2
22129;SDS011;11231;50.746;4.272;2023-08-06T00:00:27;11.43;;;3.10;;
22129;SDS011;11231;50.746;4.272;2023-08-06T00:02:52;7.07;;;2.87;;
22129;SDS011;11231;50.746;4.272;2023-08-06T00:05:18;12.60;;;3.40;;
22129;SDS011;11231;50.746;4.272;2023-08-06T00:07:49;13.50;;;3.50;;
22129;SDS011;11231;50.746;4.272;2023-08-06T00:10:15;9.67;;;3.07;;
22129;SDS011;11231;50.746;4.272;2023-08-06T00:12:42;6.83;;;2.80;;
22129;SDS011;11231;50.746;4.272;2023-08-06T00:15:09;12.30;;;3.93;;
22129;SDS011;11231;50.746;4.272;2023-08-06T00:17:35;10.93;;;4.10;;
22129;SDS011;11231;50.746;4.272;2023-08-06T00:20:02;13.03;;;4.20;;
22129;SDS011;11231;50.746;4.272;2023-08-06T00:22:31;11.77;;;3.90;;
22129;SDS011;11231;50.746;4.272;2023-08-06T00:25:00;10.37;;;4.37;;
22129;SDS011;11231;50.746;4.272;2023-08-06T00:27:26;19.83;;;5.07;;
22129;SDS011;11231;50.746;4.272;2023-08-06T00:29:52;12.47;;;4.40;;
22129;SDS011;11231;50.746;4.272;2023-08-06T00:32:18;15.53;;;4.83;;
22129;SDS011;11231;50.746;4.272;2023-08-06T00:34:44;12.10;;;5.20;;
22129;SDS011;11231;50.746;4.272;2023-08-06T00:37:10;13.30;;;5.77;;
22129;SDS011;11231;50.746;4.272;2023-08-06T00:39:36;17.97;;;6.10;;
22129;SDS011;11231;50.746;4.272;2023-08-06T00:42:02;17.80;;;5.67;;
22129;SDS011;11231;50.746;4.272;2023-08-06T00:44:28;15.00;;;5.60;;
22129;SDS011;11231;50.746;4.272;2023-08-06T00:46:55;20.23;;;6.43;;
22129;SDS011;11231;50.746;4.272;2023-08-06T00:49:21;15.10;;;5.93;;
22129;SDS011;11231;50.746;4.272;2023-08-06T00:51:47;15.27;;;6.40;;
22129;SDS011;11231;50.746;4.272;2023-08-06T00:54:13;15.13;;;6.63;;
22129;SDS011;11231;50.746;4.272;2023-08-06T00:56:40;15.47;;;6.90;;
22129;SDS011;11231;50.746;4.272;2023-08-06T00:59:07;17.37;;;7.27;;
22129;SDS011;11231;50.746;4.272;2023-08-06T01:01:33;16.97;;;7.70;;
22129;SDS011;11231;50.746;4.272;2023-08-06T01:03:59;17.40;;;8.00;;
22129;SDS011;11231;50.746;4.272;2023-08-06T01:12:05;17.93;;;8.30;;
22129;SDS011;11231;50.746;4.272;2023-08-06T01:14:47;17.03;;;8.10;;
22129;SDS011;11231;50.746;4.272;2023-08-06T01:17:17;18.07;;;9.10;;
22129;SDS011;11231;50.746;4.272;2023-08-06T01:19:43;19.37;;;9.63;;
22129;SDS011;11231;50.746;4.272;2023-08-06T01:22:09;23.77;;;8.40;;
22129;SDS011;11231;50.746;4.272;2023-08-06T01:24:35;21.23;;;8.47;;
22129;SDS011;11231;50.746;4.272;2023-08-06T01:27:06;20.37;;;9.00;;
22129;SDS011;11231;50.746;4.272;2023-08-06T01:29:35;18.50;;;8.07;;
22129;SDS011;11231;50.746;4.272;2023-08-06T01:32:08;19.77;;;7.40;;
22129;SDS011;11231;50.746;4.272;2023-08-06T01:34:39;14.97;;;6.60;;
22129;SDS011;11231;50.746;4.272;2023-08-06T01:37:09;16.73;;;5.47;;
22129;SDS011;11231;50.746;4.272;2023-08-06T01:39:36;13.50;;;5.27;;
22129;SDS011;11231;50.746;4.272;2023-08-06T01:42:02;16.27;;;4.97;;
22129;SDS011;11231;50.746;4.272;2023-08-06T01:44:28;16.90;;;4.80;;
22129;SDS011;11231;50.746;4.272;2023-08-06T01:46:55;11.47;;;4.00;;
22129;SDS011;11231;50.746;4.272;2023-08-06T01:49:20;17.50;;;5.00;;
22129;SDS011;11231;50.746;4.272;2023-08-06T01:51:46;12.73;;;3.97;;
22129;SDS011;11231;50.746;4.272;2023-08-06T01:54:12;9.57;;;3.50;;
22129;SDS011;11231;50.746;4.272;2023-08-06T01:56:38;8.33;;;2.60;;
22129;SDS011;11231;50.746;4.272;2023-08-06T01:59:03;6.30;;;1.93;;
22129;SDS011;11231;50.746;4.272;2023-08-06T02:01:29;8.50;;;2.10;;
22129;SDS011;11231;50.746;4.272;2023-08-06T02:03:55;6.63;;;2.10;;
22129;SDS011;11231;50.746;4.272;2023-08-06T02:06:21;5.57;;;2.17;;
22129;SDS011;11231;50.746;4.272;2023-08-06T02:08:46;8.40;;;2.23;;
22129;SDS011;11231;50.746;4.272;2023-08-06T02:11:14;9.00;;;2.30;;
22129;SDS011;11231;50.746;4.272;2023-08-06T02:13:40;10.63;;;2.17;;
22129;SDS011;11231;50.746;4.272;2023-08-06T02:16:07;11.50;;;2.53;;
22129;SDS011;11231;50.746;4.272;2023-08-06T02:18:34;9.03;;;2.37;;
22129;SDS011;11231;50.746;4.272;2023-08-06T02:21:03;6.90;;;2.57;;
22129;SDS011;11231;50.746;4.272;2023-08-06T02:23:29;7.70;;;2.30;;
22129;SDS011;11231;50.746;4.272;2023-08-06T02:25:59;5.77;;;2.03;;
22129;SDS011;11231;50.746;4.272;2023-08-06T02:28:28;12.43;;;2.47;;
22129;SDS011;11231;50.746;4.272;2023-08-06T02:30:54;8.10;;;2.10;;
22129;SDS011;11231;50.746;4.272;2023-08-06T02:33:20;5.93;;;1.80;;
22129;SDS011;11231;50.746;4.272;2023-08-06T02:35:46;7.97;;;1.97;;
22129;SDS011;11231;50.746;4.272;2023-08-06T02:38:12;10.70;;;2.37;;
22129;SDS011;11231;50.746;4.272;2023-08-06T02:40:44;7.67;;;1.93;;
22129;SDS011;11231;50.746;4.272;2023-08-06T02:43:11;6.30;;;2.00;;
22129;SDS011;11231;50.746;4.272;2023-08-06T02:45:37;7.37;;;2.20;;
22129;SDS011;11231;50.746;4.272;2023-08-06T02:48:03;10.30;;;2.73;;
22129;SDS011;11231;50.746;4.272;2023-08-06T02:50:29;8.53;;;2.97;;
22129;SDS011;11231;50.746;4.272;2023-08-06T02:52:55;16.90;;;3.30;;
22129;SDS011;11231;50.746;4.272;2023-08-06T02:55:23;9.97;;;3.60;;
22129;SDS011;11231;50.746;4.272;2023-08-06T02:57:49;13.93;;;4.30;;
22129;SDS011;11231;50.746;4.272;2023-08-06T03:00:15;10.47;;;4.10;;
22129;SDS011;11231;50.746;4.272;2023-08-06T03:02:41;12.27;;;5.30;;
22129;SDS011;11231;50.746;4.272;2023-08-06T03:05:26;18.33;;;4.90;;
22129;SDS011;11231;50.746;4.272;2023-08-06T03:07:52;14.40;;;5.67;;
22129;SDS011;11231;50.746;4.272;2023-08-06T03:10:22;15.07;;;6.17;;
22129;SDS011;11231;50.746;4.272;2023-08-06T03:12:50;16.90;;;6.30;;
22129;SDS011;11231;50.746;4.272;2023-08-06T03:15:17;19.50;;;8.43;;
22129;SDS011;11231;50.746;4.272;2023-08-06T03:17:44;18.43;;;9.07;;
22129;SDS011;11231;50.746;4.272;2023-08-06T03:20:11;27.13;;;12.43;;
22129;SDS011;11231;50.746;4.272;2023-08-06T03:22:37;22.83;;;10.10;;
22129;SDS011;11231;50.746;4.272;2023-08-06T03:25:03;17.30;;;7.57;;
22129;SDS011;11231;50.746;4.272;2023-08-06T03:27:29;12.63;;;4.90;;
22129;SDS011;11231;50.746;4.272;2023-08-06T03:29:55;14.90;;;3.60;;
22129;SDS011;11231;50.746;4.272;2023-08-06T03:32:24;6.83;;;2.70;;
22129;SDS011;11231;50.746;4.272;2023-08-06T03:34:52;8.97;;;3.07;;
22129;SDS011;11231;50.746;4.272;2023-08-06T03:37:19;6.97;;;3.00;;
22129;SDS011;11231;50.746;4.272;2023-08-06T03:39:45;10.03;;;3.00;;
22129;SDS011;11231;50.746;4.272;2023-08-06T03:42:14;8.13;;;3.10;;
22129;SDS011;11231;50.746;4.272;2023-08-06T03:44:40;12.20;;;3.67;;
22129;SDS011;11231;50.746;4.272;2023-08-06T03:47:07;7.67;;;4.10;;
22129;SDS011;11231;50.746;4.272;2023-08-06T03:49:33;10.20;;;4.17;;
22129;SDS011;11231;50.746;4.272;2023-08-06T03:51:59;8.27;;;3.40;;
22129;SDS011;11231;50.746;4.272;2023-08-06T03:54:25;8.47;;;4.00;;
22129;SDS011;11231;50.746;4.272;2023-08-06T03:56:51;9.10;;;4.10;;
22129;SDS011;11231;50.746;4.272;2023-08-06T03:59:17;9.20;;;4.43;;
22129;SDS011;11231;50.746;4.272;2023-08-06T04:01:45;10.20;;;4.53;;
22129;SDS011;11231;50.746;4.272;2023-08-06T04:04:10;12.80;;;4.40;;
22129;SDS011;11231;50.746;4.272;2023-08-06T04:06:36;9.43;;;3.97;;
22129;SDS011;11231;50.746;4.272;2023-08-06T04:09:02;10.23;;;4.60;;
22129;SDS011;11231;50.746;4.272;2023-08-06T04:11:28;10.30;;;3.70;;
22129;SDS011;11231;50.746;4.272;2023-08-06T04:13:53;12.90;;;4.00;;
22129;SDS011;11231;50.746;4.272;2023-08-06T04:16:20;9.87;;;3.50;;
22129;SDS011;11231;50.746;4.272;2023-08-06T04:18:47;12.50;;;3.70;;
22129;SDS011;11231;50.746;4.272;2023-08-06T04:21:12;10.33;;;3.37;;
22129;SDS011;11231;50.746;4.272;2023-08-06T04:23:39;9.77;;;3.70;;
22129;SDS011;11231;50.746;4.272;2023-08-06T04:26:07;9.20;;;3.93;;
22129;SDS011;11231;50.746;4.272;2023-08-06T04:28:34;11.40;;;4.87;;
22129;SDS011;11231;50.746;4.272;2023-08-06T04:31:00;13.00;;;5.00;;
22129;SDS011;11231;50.746;4.272;2023-08-06T04:33:28;12.40;;;5.33;;
22129;SDS011;11231;50.746;4.272;2023-08-06T04:35:56;10.13;;;4.63;;
22129;SDS011;11231;50.746;4.272;2023-08-06T04:38:24;10.37;;;5.33;;
22129;SDS011;11231;50.746;4.272;2023-08-06T04:40:51;15.77;;;5.63;;
22129;SDS011;11231;50.746;4.272;2023-08-06T04:43:17;14.13;;;6.13;;
22129;SDS011;11231;50.746;4.272;2023-08-06T04:45:46;14.40;;;6.23;;
22129;SDS011;11231;50.746;4.272;2023-08-06T04:48:16;13.00;;;5.93;;
22129;SDS011;11231;50.746;4.272;2023-08-06T04:50:45;15.07;;;5.87;;
22129;SDS011;11231;50.746;4.272;2023-08-06T04:53:12;13.80;;;5.33;;
22129;SDS011;11231;50.746;4.272;2023-08-06T04:55:38;11.40;;;5.17;;
22129;SDS011;11231;50.746;4.272;2023-08-06T04:58:04;14.60;;;5.60;;
22129;SDS011;11231;50.746;4.272;2023-08-06T05:00:30;14.17;;;5.47;;
22129;SDS011;11231;50.746;4.272;2023-08-06T05:02:56;15.70;;;5.30;;
22129;SDS011;11231;50.746;4.272;2023-08-06T05:05:22;14.33;;;5.87;;
22129;SDS011;11231;50.746;4.272;2023-08-06T05:07:48;14.10;;;6.40;;
22129;SDS011;11231;50.746;4.272;2023-08-06T05:10:15;16.87;;;6.73;;
22129;SDS011;11231;50.746;4.272;2023-08-06T05:12:41;19.60;;;6.70;;
22129;SDS011;11231;50.746;4.272;2023-08-06T05:15:07;18.40;;;6.90;;
22129;SDS011;11231;50.746;4.272;2023-08-06T05:17:33;16.17;;;6.57;;
22129;SDS011;11231;50.746;4.272;2023-08-06T05:19:59;16.43;;;6.50;;
22129;SDS011;11231;50.746;4.272;2023-08-06T05:22:25;19.00;;;5.87;;
22129;SDS011;11231;50.746;4.272;2023-08-06T05:24:51;19.33;;;5.83;;
22129;SDS011;11231;50.746;4.272;2023-08-06T05:27:16;21.77;;;6.10;;
22129;SDS011;11231;50.746;4.272;2023-08-06T05:29:44;19.13;;;5.70;;
22129;SDS011;11231;50.746;4.272;2023-08-06T05:32:10;16.20;;;4.83;;
22129;SDS011;11231;50.746;4.272;2023-08-06T05:34:36;16.20;;;5.20;;
22129;SDS011;11231;50.746;4.272;2023-08-06T05:37:03;13.43;;;4.30;;
22129;SDS011;11231;50.746;4.272;2023-08-06T05:39:29;19.27;;;4.70;;
22129;SDS011;11231;50.746;4.272;2023-08-06T05:41:54;11.87;;;4.63;;
22129;SDS011;11231;50.746;4.272;2023-08-06T05:44:20;18.03;;;4.57;;
22129;SDS011;11231;50.746;4.272;2023-08-06T05:46:47;16.70;;;3.93;;
22129;SDS011;11231;50.746;4.272;2023-08-06T05:49:14;16.90;;;4.10;;
22129;SDS011;11231;50.746;4.272;2023-08-06T05:51:39;17.30;;;4.70;;
22129;SDS011;11231;50.746;4.272;2023-08-06T05:54:06;17.03;;;5.10;;
22129;SDS011;11231;50.746;4.272;2023-08-06T05:56:31;14.87;;;4.80;;
22129;SDS011;11231;50.746;4.272;2023-08-06T05:58:58;14.63;;;4.37;;
22129;SDS011;11231;50.746;4.272;2023-08-06T06:01:24;16.90;;;4.30;;
22129;SDS011;11231;50.746;4.272;2023-08-06T06:03:50;18.50;;;4.40;;
22129;SDS011;11231;50.746;4.272;2023-08-06T06:06:15;13.00;;;4.07;;
22129;SDS011;11231;50.746;4.272;2023-08-06T06:08:42;13.00;;;3.83;;
22129;SDS011;11231;50.746;4.272;2023-08-06T06:11:09;14.43;;;4.17;;
22129;SDS011;11231;50.746;4.272;2023-08-06T06:13:35;14.10;;;3.93;;
22129;SDS011;11231;50.746;4.272;2023-08-06T06:16:00;15.80;;;4.13;;
22129;SDS011;11231;50.746;4.272;2023-08-06T06:18:26;18.40;;;4.30;;
22129;SDS011;11231;50.746;4.272;2023-08-06T06:20:52;11.90;;;4.20;;
22129;SDS011;11231;50.746;4.272;2023-08-06T06:23:18;18.17;;;4.47;;
22129;SDS011;11231;50.746;4.272;2023-08-06T06:25:46;18.83;;;4.20;;
22129;SDS011;11231;50.746;4.272;2023-08-06T06:28:13;16.37;;;4.50;;
22129;SDS011;11231;50.746;4.272;2023-08-06T06:30:40;17.13;;;4.40;;
22129;SDS011;11231;50.746;4.272;2023-08-06T06:33:07;16.73;;;4.20;;
22129;SDS011;11231;50.746;4.272;2023-08-06T06:35:33;18.50;;;4.40;;
22129;SDS011;11231;50.746;4.272;2023-08-06T06:37:59;13.97;;;4.03;;
22129;SDS011;11231;50.746;4.272;2023-08-06T06:40:25;15.47;;;4.43;;
22129;SDS011;11231;50.746;4.272;2023-08-06T06:42:51;16.33;;;4.47;;
22129;SDS011;11231;50.746;4.272;2023-08-06T06:45:17;13.80;;;3.67;;
22129;SDS011;11231;50.746;4.272;2023-08-06T06:47:42;12.87;;;3.77;;
22129;SDS011;11231;50.746;4.272;2023-08-06T06:50:08;18.50;;;3.70;;
22129;SDS011;11231;50.746;4.272;2023-08-06T06:52:34;18.93;;;4.10;;
22129;SDS011;11231;50.746;4.272;2023-08-06T06:55:00;14.60;;;3.93;;
22129;SDS011;11231;50.746;4.272;2023-08-06T06:57:26;12.00;;;3.63;;
22129;SDS011;11231;50.746;4.272;2023-08-06T06:59:52;16.40;;;3.33;;
22129;SDS011;11231;50.746;4.272;2023-08-06T07:02:18;9.00;;;2.53;;
22129;SDS011;11231;50.746;4.272;2023-08-06T07:04:43;12.93;;;2.20;;
22129;SDS011;11231;50.746;4.272;2023-08-06T07:07:09;13.53;;;2.60;;
22129;SDS011;11231;50.746;4.272;2023-08-06T07:09:35;10.50;;;2.40;;
22129;SDS011;11231;50.746;4.272;2023-08-06T07:12:01;9.90;;;2.30;;
22129;SDS011;11231;50.746;4.272;2023-08-06T07:14:27;9.93;;;2.37;;
22129;SDS011;11231;50.746;4.272;2023-08-06T07:16:54;9.67;;;2.10;;
22129;SDS011;11231;50.746;4.272;2023-08-06T07:19:20;9.20;;;2.00;;
22129;SDS011;11231;50.746;4.272;2023-08-06T07:21:45;9.60;;;1.43;;
22129;SDS011;11231;50.746;4.272;2023-08-06T07:24:11;12.27;;;1.70;;
22129;SDS011;11231;50.746;4.272;2023-08-06T07:26:37;14.27;;;1.40;;
22129;SDS011;11231;50.746;4.272;2023-08-06T07:29:03;12.13;;;1.50;;
22129;SDS011;11231;50.746;4.272;2023-08-06T07:31:29;11.43;;;1.70;;
22129;SDS011;11231;50.746;4.272;2023-08-06T07:33:55;12.60;;;1.77;;
22129;SDS011;11231;50.746;4.272;2023-08-06T07:36:21;12.50;;;1.50;;
22129;SDS011;11231;50.746;4.272;2023-08-06T07:38:46;9.27;;;1.80;;
22129;SDS011;11231;50.746;4.272;2023-08-06T07:41:16;14.47;;;1.70;;
22129;SDS011;11231;50.746;4.272;2023-08-06T07:43:42;11.47;;;1.53;;
22129;SDS011;11231;50.746;4.272;2023-08-06T07:46:08;10.33;;;1.70;;
22129;SDS011;11231;50.746;4.272;2023-08-06T07:48:33;10.70;;;1.60;;
22129;SDS011;11231;50.746;4.272;2023-08-06T07:50:59;11.87;;;2.03;;
22129;SDS011;11231;50.746;4.272;2023-08-06T07:53:25;14.83;;;1.80;;
22129;SDS011;11231;50.746;4.272;2023-08-06T07:55:53;13.83;;;1.97;;
22129;SDS011;11231;50.746;4.272;2023-08-06T07:58:19;16.10;;;2.13;;
22129;SDS011;11231;50.746;4.272;2023-08-06T08:00:46;13.30;;;2.10;;
22129;SDS011;11231;50.746;4.272;2023-08-06T08:03:12;11.97;;;2.20;;
22129;SDS011;11231;50.746;4.272;2023-08-06T08:05:39;12.87;;;2.17;;
22129;SDS011;11231;50.746;4.272;2023-08-06T08:08:05;9.50;;;1.93;;
22129;SDS011;11231;50.746;4.272;2023-08-06T08:10:32;14.07;;;2.20;;
22129;SDS011;11231;50.746;4.272;2023-08-06T08:12:58;9.27;;;1.77;;
22129;SDS011;11231;50.746;4.272;2023-08-06T08:15:24;13.60;;;2.70;;
22129;SDS011;11231;50.746;4.272;2023-08-06T08:17:51;12.93;;;1.93;;
22129;SDS011;11231;50.746;4.272;2023-08-06T08:20:17;9.03;;;1.83;;
22129;SDS011;11231;50.746;4.272;2023-08-06T08:22:44;7.83;;;1.80;;
22129;SDS011;11231;50.746;4.272;2023-08-06T08:25:09;10.80;;;1.83;;
22129;SDS011;11231;50.746;4.272;2023-08-06T08:27:35;10.40;;;1.67;;
22129;SDS011;11231;50.746;4.272;2023-08-06T08:30:01;8.60;;;1.50;;
22129;SDS011;11231;50.746;4.272;2023-08-06T08:32:27;11.20;;;1.50;;
22129;SDS011;11231;50.746;4.272;2023-08-06T08:41:49;10.57;;;2.17;;
22129;SDS011;11231;50.746;4.272;2023-08-06T08:44:15;14.40;;;1.83;;
22129;SDS011;11231;50.746;4.272;2023-08-06T08:46:43;10.07;;;1.60;;
22129;SDS011;11231;50.746;4.272;2023-08-06T08:49:10;12.73;;;1.90;;
22129;SDS011;11231;50.746;4.272;2023-08-06T08:51:36;8.30;;;1.50;;
22129;SDS011;11231;50.746;4.272;2023-08-06T08:54:03;10.13;;;1.57;;
22129;SDS011;11231;50.746;4.272;2023-08-06T08:56:29;9.87;;;1.57;;
22129;SDS011;11231;50.746;4.272;2023-08-06T08:58:56;13.30;;;1.63;;
22129;SDS011;11231;50.746;4.272;2023-08-06T09:01:22;9.10;;;1.63;;
22129;SDS011;11231;50.746;4.272;2023-08-06T09:03:49;11.83;;;2.10;;
22129;SDS011;11231;50.746;4.272;2023-08-06T09:06:16;10.30;;;2.00;;
22129;SDS011;11231;50.746;4.272;2023-08-06T09:11:51;8.30;;;1.73;;
22129;SDS011;11231;50.746;4.272;2023-08-06T09:14:17;11.90;;;2.10;;
22129;SDS011;11231;50.746;4.272;2023-08-06T09:16:43;15.77;;;2.30;;
22129;SDS011;11231;50.746;4.272;2023-08-06T09:19:10;7.57;;;1.83;;
22129;SDS011;11231;50.746;4.272;2023-08-06T09:21:42;11.90;;;2.17;;
22129;SDS011;11231;50.746;4.272;2023-08-06T09:24:09;9.90;;;2.13;;
22129;SDS011;11231;50.746;4.272;2023-08-06T09:26:36;11.97;;;1.87;;
22129;SDS011;11231;50.746;4.272;2023-08-06T09:29:04;10.47;;;1.87;;
22129;SDS011;11231;50.746;4.272;2023-08-06T09:31:44;12.13;;;2.07;;
22129;SDS011;11231;50.746;4.272;2023-08-06T09:34:15;9.83;;;1.70;;
22129;SDS011;11231;50.746;4.272;2023-08-06T09:36:42;13.83;;;2.00;;
22129;SDS011;11231;50.746;4.272;2023-08-06T09:39:16;10.77;;;2.10;;
22129;SDS011;11231;50.746;4.272;2023-08-06T09:41:44;13.37;;;2.20;;
22129;SDS011;11231;50.746;4.272;2023-08-06T09:44:16;12.40;;;1.83;;
22129;SDS011;11231;50.746;4.272;2023-08-06T09:47:04;12.57;;;2.17;;
22129;SDS011;11231;50.746;4.272;2023-08-06T09:51:57;12.97;;;2.30;;
22129;SDS011;11231;50.746;4.272;2023-08-06T09:54:25;10.13;;;1.90;;
22129;SDS011;11231;50.746;4.272;2023-08-06T09:56:52;12.93;;;2.10;;
22129;SDS011;11231;50.746;4.272;2023-08-06T09:59:19;11.87;;;2.00;;
22129;SDS011;11231;50.746;4.272;2023-08-06T10:01:45;8.43;;;1.90;;
22129;SDS011;11231;50.746;4.272;2023-08-06T10:04:12;12.73;;;2.13;;
22129;SDS011;11231;50.746;4.272;2023-08-06T10:06:41;12.87;;;1.97;;
22129;SDS011;11231;50.746;4.272;2023-08-06T10:09:08;14.87;;;2.03;;
22129;SDS011;11231;50.746;4.272;2023-08-06T10:11:34;10.43;;;1.70;;
22129;SDS011;11231;50.746;4.272;2023-08-06T10:14:05;11.60;;;1.90;;
22129;SDS011;11231;50.746;4.272;2023-08-06T10:16:34;7.40;;;1.43;;
22129;SDS011;11231;50.746;4.272;2023-08-06T10:19:01;11.77;;;2.17;;
22129;SDS011;11231;50.746;4.272;2023-08-06T10:21:30;12.00;;;2.27;;
22129;SDS011;11231;50.746;4.272;2023-08-06T10:23:57;12.20;;;2.00;;
22129;SDS011;11231;50.746;4.272;2023-08-06T10:26:29;9.67;;;1.97;;
22129;SDS011;11231;50.746;4.272;2023-08-06T10:28:55;9.97;;;2.00;;
22129;SDS011;11231;50.746;4.272;2023-08-06T10:31:53;8.80;;;1.50;;
22129;SDS011;11231;50.746;4.272;2023-08-06T10:34:20;11.07;;;1.90;;
22129;SDS011;11231;50.746;4.272;2023-08-06T10:36:46;12.17;;;1.80;;
22129;SDS011;11231;50.746;4.272;2023-08-06T10:39:15;10.17;;;1.77;;
22129;SDS011;11231;50.746;4.272;2023-08-06T10:41:44;11.23;;;1.60;;
22129;SDS011;11231;50.746;4.272;2023-08-06T10:44:10;13.80;;;1.80;;
22129;SDS011;11231;50.746;4.272;2023-08-06T10:46:37;12.43;;;1.73;;
22129;SDS011;11231;50.746;4.272;2023-08-06T10:49:03;9.80;;;1.87;;
22129;SDS011;11231;50.746;4.272;2023-08-06T10:51:30;7.77;;;1.73;;
22129;SDS011;11231;50.746;4.272;2023-08-06T10:53:56;11.20;;;2.30;;
22129;SDS011;11231;50.746;4.272;2023-08-06T10:56:23;8.80;;;1.77;;
22129;SDS011;11231;50.746;4.272;2023-08-06T10:58:55;9.90;;;1.80;;
22129;SDS011;11231;50.746;4.272;2023-08-06T11:01:22;10.57;;;2.03;;
22129;SDS011;11231;50.746;4.272;2023-08-06T11:03:48;7.87;;;1.97;;
22129;SDS011;11231;50.746;4.272;2023-08-06T11:06:21;12.10;;;2.27;;
22129;SDS011;11231;50.746;4.272;2023-08-06T11:08:51;14.07;;;2.17;;
22129;SDS011;11231;50.746;4.272;2023-08-06T11:11:19;15.03;;;2.03;;
22129;SDS011;11231;50.746;4.272;2023-08-06T11:13:46;7.73;;;1.80;;
22129;SDS011;11231;50.746;4.272;2023-08-06T11:16:17;8.63;;;1.60;;
22129;SDS011;11231;50.746;4.272;2023-08-06T11:18:52;12.53;;;1.90;;
22129;SDS011;11231;50.746;4.272;2023-08-06T11:21:22;10.30;;;1.53;;
22129;SDS011;11231;50.746;4.272;2023-08-06T11:23:49;8.10;;;1.77;;
22129;SDS011;11231;50.746;4.272;2023-08-06T11:26:20;11.57;;;2.03;;
22129;SDS011;11231;50.746;4.272;2023-08-06T11:28:46;10.43;;;1.60;;
22129;SDS011;11231;50.746;4.272;2023-08-06T11:31:21;9.00;;;1.90;;
22129;SDS011;11231;50.746;4.272;2023-08-06T11:33:49;9.40;;;2.20;;
22129;SDS011;11231;50.746;4.272;2023-08-06T11:36:34;11.47;;;1.80;;
22129;SDS011;11231;50.746;4.272;2023-08-06T11:39:05;12.27;;;1.97;;
22129;SDS011;11231;50.746;4.272;2023-08-06T11:41:31;8.60;;;1.63;;
22129;SDS011;11231;50.746;4.272;2023-08-06T11:44:01;7.70;;;1.83;;
22129;SDS011;11231;50.746;4.272;2023-08-06T11:46:27;8.43;;;1.80;;
22129;SDS011;11231;50.746;4.272;2023-08-06T11:48:56;11.83;;;2.10;;
22129;SDS011;11231;50.746;4.272;2023-08-06T11:51:27;8.73;;;1.30;;
22129;SDS011;11231;50.746;4.272;2023-08-06T11:53:59;10.43;;;2.00;;
22129;SDS011;11231;50.746;4.272;2023-08-06T11:56:25;11.73;;;2.07;;
22129;SDS011;11231;50.746;4.272;2023-08-06T11:58:53;8.97;;;2.10;;
22129;SDS011;11231;50.746;4.272;2023-08-06T12:01:20;9.80;;;2.20;;
22129;SDS011;11231;50.746;4.272;2023-08-06T12:03:46;9.50;;;1.80;;
22129;SDS011;11231;50.746;4.272;2023-08-06T12:06:11;12.57;;;2.13;;
22129;SDS011;11231;50.746;4.272;2023-08-06T12:08:37;11.17;;;1.60;;
22129;SDS011;11231;50.746;4.272;2023-08-06T12:11:03;9.50;;;1.90;;
22129;SDS011;11231;50.746;4.272;2023-08-06T12:13:29;12.10;;;2.27;;
22129;SDS011;11231;50.746;4.272;2023-08-06T12:15:55;11.37;;;1.73;;
22129;SDS011;11231;50.746;4.272;2023-08-06T12:18:22;9.87;;;1.87;;
22129;SDS011;11231;50.746;4.272;2023-08-06T12:20:48;11.40;;;1.80;;
22129;SDS011;11231;50.746;4.272;2023-08-06T12:23:14;7.80;;;1.57;;
22129;SDS011;11231;50.746;4.272;2023-08-06T12:25:41;6.87;;;1.73;;
22129;SDS011;11231;50.746;4.272;2023-08-06T12:28:07;7.20;;;1.60;;
22129;SDS011;11231;50.746;4.272;2023-08-06T12:30:34;9.73;;;2.07;;
22129;SDS011;11231;50.746;4.272;2023-08-06T12:33:00;8.10;;;1.90;;
22129;SDS011;11231;50.746;4.272;2023-08-06T12:35:25;10.13;;;1.93;;
22129;SDS011;11231;50.746;4.272;2023-08-06T12:37:51;11.17;;;1.90;;
22129;SDS011;11231;50.746;4.272;2023-08-06T12:40:20;7.10;;;1.83;;
22129;SDS011;11231;50.746;4.272;2023-08-06T12:42:46;8.30;;;2.10;;
22129;SDS011;11231;50.746;4.272;2023-08-06T12:45:11;9.80;;;2.30;;
22129;SDS011;11231;50.746;4.272;2023-08-06T12:47:37;9.07;;;2.20;;
22129;SDS011;11231;50.746;4.272;2023-08-06T12:50:03;8.40;;;2.07;;
22129;SDS011;11231;50.746;4.272;2023-08-06T12:52:29;8.13;;;2.03;;
22129;SDS011;11231;50.746;4.272;2023-08-06T12:54:55;8.53;;;1.70;;
22129;SDS011;11231;50.746;4.272;2023-08-06T12:57:21;9.50;;;1.80;;
22129;SDS011;11231;50.746;4.272;2023-08-06T12:59:46;9.93;;;2.10;;
22129;SDS011;11231;50.746;4.272;2023-08-06T13:02:13;8.53;;;2.10;;
22129;SDS011;11231;50.746;4.272;2023-08-06T13:04:39;10.10;;;2.40;;
22129;SDS011;11231;50.746;4.272;2023-08-06T13:07:05;8.23;;;2.30;;
22129;SDS011;11231;50.746;4.272;2023-08-06T13:09:31;7.80;;;2.10;;
22129;SDS011;11231;50.746;4.272;2023-08-06T13:11:58;11.17;;;2.53;;
22129;SDS011;11231;50.746;4.272;2023-08-06T13:14:25;10.73;;;2.43;;
22129;SDS011;11231;50.746;4.272;2023-08-06T13:16:51;7.30;;;1.87;;
22129;SDS011;11231;50.746;4.272;2023-08-06T13:19:16;11.97;;;2.20;;
22129;SDS011;11231;50.746;4.272;2023-08-06T13:24:15;8.87;;;1.80;;
22129;SDS011;11231;50.746;4.272;2023-08-06T13:26:40;8.23;;;1.73;;
22129;SDS011;11231;50.746;4.272;2023-08-06T13:29:06;13.20;;;1.93;;
22129;SDS011;11231;50.746;4.272;2023-08-06T13:31:32;12.87;;;2.17;;
22129;SDS011;11231;50.746;4.272;2023-08-06T13:33:58;10.80;;;2.30;;
22129;SDS011;11231;50.746;4.272;2023-08-06T13:36:24;12.00;;;1.93;;
22129;SDS011;11231;50.746;4.272;2023-08-06T13:38:53;9.37;;;2.17;;
22129;SDS011;11231;50.746;4.272;2023-08-06T13:41:19;9.60;;;1.50;;
22129;SDS011;11231;50.746;4.272;2023-08-06T13:43:45;9.23;;;1.60;;
22129;SDS011;11231;50.746;4.272;2023-08-06T13:46:11;9.93;;;1.60;;
22129;SDS011;11231;50.746;4.272;2023-08-06T13:48:41;11.33;;;1.67;;
22129;SDS011;11231;50.746;4.272;2023-08-06T13:51:08;8.97;;;1.63;;
22129;SDS011;11231;50.746;4.272;2023-08-06T13:53:34;8.07;;;1.43;;
22129;SDS011;11231;50.746;4.272;2023-08-06T13:56:00;9.03;;;1.53;;
22129;SDS011;11231;50.746;4.272;2023-08-06T13:58:26;9.53;;;1.83;;
22129;SDS011;11231;50.746;4.272;2023-08-06T14:00:52;12.60;;;1.90;;
22129;SDS011;11231;50.746;4.272;2023-08-06T14:03:19;10.60;;;1.60;;
22129;SDS011;11231;50.746;4.272;2023-08-06T14:05:45;8.77;;;1.60;;
22129;SDS011;11231;50.746;4.272;2023-08-06T14:08:11;8.30;;;1.53;;
22129;SDS011;11231;50.746;4.272;2023-08-06T14:10:38;8.40;;;1.70;;
22129;SDS011;11231;50.746;4.272;2023-08-06T14:13:04;9.33;;;1.60;;
22129;SDS011;11231;50.746;4.272;2023-08-06T14:15:30;7.00;;;1.57;;
22129;SDS011;11231;50.746;4.272;2023-08-06T14:17:56;10.73;;;1.73;;
22129;SDS011;11231;50.746;4.272;2023-08-06T14:20:21;5.53;;;1.40;;
22129;SDS011;11231;50.746;4.272;2023-08-06T14:22:48;7.03;;;1.60;;
22129;SDS011;11231;50.746;4.272;2023-08-06T14:25:14;7.33;;;1.13;;
22129;SDS011;11231;50.746;4.272;2023-08-06T14:27:39;4.37;;;1.20;;
22129;SDS011;11231;50.746;4.272;2023-08-06T14:30:06;6.93;;;1.70;;
22129;SDS011;11231;50.746;4.272;2023-08-06T14:32:33;6.43;;;1.57;;
22129;SDS011;11231;50.746;4.272;2023-08-06T14:34:59;10.17;;;2.20;;
22129;SDS011;11231;50.746;4.272;2023-08-06T14:37:24;9.67;;;1.60;;
22129;SDS011;11231;50.746;4.272;2023-08-06T14:39:51;10.37;;;1.57;;
22129;SDS011;11231;50.746;4.272;2023-08-06T14:42:17;12.13;;;2.10;;
22129;SDS011;11231;50.746;4.272;2023-08-06T14:44:43;8.33;;;1.83;;
22129;SDS011;11231;50.746;4.272;2023-08-06T14:47:09;10.30;;;1.73;;
22129;SDS011;11231;50.746;4.272;2023-08-06T14:49:34;8.83;;;1.90;;
22129;SDS011;11231;50.746;4.272;2023-08-06T14:52:00;6.27;;;1.77;;
22129;SDS011;11231;50.746;4.272;2023-08-06T14:54:27;14.53;;;1.93;;
22129;SDS011;11231;50.746;4.272;2023-08-06T14:56:53;11.20;;;1.80;;